Time;durP1;ratioP1;P1;durP2;ratioP2;P2;SDS_P1;SDS_P2;PMS_P1;PMS_P2;Temp;Humidity;BMP_temperature;BMP_pressure;BME280_temperature;BME280_humidity;BME280_pressure;Samples;Min_cycle;Max_cycle;Signal;HPM_P1;HPM_P2
2024/03/18 00:01:26;;;;;;;8.30;5.60;;;;;;;;;;5153875;27;20103;-48
2024/03/18 00:03:52;;;;;;;9.13;6.00;;;;;;;;;;5138680;27;20023;-49
2024/03/18 00:06:18;;;;;;;9.95;6.18;;;;;;;;;;5146072;27;20028;-49
2024/03/18 00:08:46;;;;;;;6.93;5.38;;;;;;;;;;5147525;27;20118;-52
2024/03/18 00:11:12;;;;;;;7.05;5.63;;;;;;;;;;5153565;27;20126;-50
2024/03/18 00:13:38;;;;;;;8.00;5.82;;;;;;;;;;5150435;27;20113;-52
2024/03/18 00:16:04;;;;;;;6.75;5.28;;;;;;;;;;5153624;27;20387;-50
2024/03/18 00:18:30;;;;;;;9.55;5.05;;;;;;;;;;5152611;27;20023;-49
2024/03/18 00:20:56;;;;;;;8.38;5.00;;;;;;;;;;5149390;27;20466;-49
2024/03/18 00:23:22;;;;;;;6.78;5.05;;;;;;;;;;5152367;27;20022;-48
2024/03/18 00:25:48;;;;;;;8.95;5.72;;;;;;;;;;5153938;27;20019;-48
2024/03/18 00:28:14;;;;;;;6.53;4.72;;;;;;;;;;5153709;27;20577;-49
2024/03/18 00:30:40;;;;;;;6.40;5.65;;;;;;;;;;5153810;27;20097;-49
2024/03/18 00:33:06;;;;;;;7.00;5.30;;;;;;;;;;5132452;27;20475;-49
2024/03/18 00:35:32;;;;;;;9.65;5.45;;;;;;;;;;5147753;27;20015;-50
2024/03/18 00:37:58;;;;;;;8.70;5.35;;;;;;;;;;5133052;27;20075;-51
2024/03/18 00:40:24;;;;;;;10.20;6.20;;;;;;;;;;5132530;27;20097;-49
2024/03/18 00:42:50;;;;;;;10.25;5.97;;;;;;;;;;5150451;27;20031;-49
2024/03/18 00:45:16;;;;;;;6.50;5.75;;;;;;;;;;5149057;27;20492;-50
2024/03/18 00:47:42;;;;;;;8.82;6.35;;;;;;;;;;5151800;27;20023;-49
2024/03/18 00:50:12;;;;;;;8.75;5.93;;;;;;;;;;5146283;27;20027;-51
2024/03/18 00:52:39;;;;;;;8.48;6.03;;;;;;;;;;5115476;27;20546;-51
2024/03/18 00:55:05;;;;;;;7.35;6.65;;;;;;;;;;5157245;27;20022;-52
2024/03/18 00:57:32;;;;;;;9.82;6.40;;;;;;;;;;5157116;27;20378;-50
2024/03/18 00:59:58;;;;;;;12.25;7.40;;;;;;;;;;5155469;27;20528;-51
2024/03/18 01:02:24;;;;;;;9.40;7.30;;;;;;;;;;5153629;27;20022;-51
2024/03/18 01:04:49;;;;;;;10.23;7.15;;;;;;;;;;5134951;27;20022;-55
2024/03/18 01:07:15;;;;;;;9.70;7.05;;;;;;;;;;5156296;27;20051;-51
2024/03/18 01:09:44;;;;;;;12.38;7.25;;;;;;;;;;5143951;27;20376;-52
2024/03/18 01:12:10;;;;;;;8.30;7.22;;;;;;;;;;5138359;27;20023;-54
2024/03/18 01:14:36;;;;;;;8.20;6.90;;;;;;;;;;5156963;27;20091;-52
2024/03/18 01:17:02;;;;;;;8.90;7.07;;;;;;;;;;5133454;27;20519;-49
2024/03/18 01:19:30;;;;;;;10.35;7.47;;;;;;;;;;5156663;27;20039;-54
2024/03/18 01:21:56;;;;;;;10.95;8.02;;;;;;;;;;5156909;27;20015;-48
2024/03/18 01:24:22;;;;;;;9.93;8.85;;;;;;;;;;5155278;27;20045;-50
2024/03/18 01:26:48;;;;;;;9.93;7.68;;;;;;;;;;5144046;27;20019;-49
2024/03/18 01:29:14;;;;;;;8.68;7.78;;;;;;;;;;5156573;27;20027;-50
2024/03/18 01:31:40;;;;;;;9.30;8.30;;;;;;;;;;5156393;27;20018;-50
2024/03/18 01:34:08;;;;;;;11.07;8.50;;;;;;;;;;5154594;27;20425;-51
2024/03/18 01:36:34;;;;;;;11.85;8.35;;;;;;;;;;5153611;27;20023;-50
2024/03/18 01:39:00;;;;;;;9.90;7.70;;;;;;;;;;5135587;27;20400;-51
2024/03/18 01:41:26;;;;;;;8.55;7.65;;;;;;;;;;5154975;27;20019;-51
2024/03/18 01:43:52;;;;;;;8.57;7.53;;;;;;;;;;5146408;27;20511;-52
2024/03/18 01:46:18;;;;;;;12.73;8.32;;;;;;;;;;5146265;27;20026;-51
2024/03/18 01:48:45;;;;;;;11.88;8.02;;;;;;;;;;5152051;27;20050;-52
2024/03/18 01:51:11;;;;;;;11.00;7.53;;;;;;;;;;5147611;27;20499;-49
2024/03/18 01:53:37;;;;;;;9.60;7.57;;;;;;;;;;5153295;27;20038;-51
2024/03/18 01:56:05;;;;;;;8.73;7.55;;;;;;;;;;5155655;27;20048;-49
2024/03/18 01:58:31;;;;;;;9.05;7.07;;;;;;;;;;5156158;27;20415;-49
2024/03/18 02:00:57;;;;;;;11.82;7.65;;;;;;;;;;5127439;27;20022;-52
2024/03/18 02:03:29;;;;;;;10.63;8.15;;;;;;;;;;5155934;27;20023;-54
2024/03/18 02:05:55;;;;;;;10.38;7.35;;;;;;;;;;5155138;27;20113;-49
2024/03/18 02:08:22;;;;;;;9.73;7.05;;;;;;;;;;5155863;27;20563;-49
2024/03/18 02:10:48;;;;;;;9.63;7.22;;;;;;;;;;5155305;27;20043;-52
2024/03/18 02:13:16;;;;;;;10.35;7.70;;;;;;;;;;5155510;27;20571;-52
2024/03/18 02:15:42;;;;;;;10.05;8.13;;;;;;;;;;5155184;27;20066;-51
2024/03/18 02:18:08;;;;;;;9.43;8.02;;;;;;;;;;5155596;27;20037;-53
2024/03/18 02:20:34;;;;;;;10.75;7.43;;;;;;;;;;5144186;27;20023;-49
2024/03/18 02:23:00;;;;;;;11.32;8.15;;;;;;;;;;5154047;27;20114;-52
2024/03/18 02:25:26;;;;;;;10.20;7.95;;;;;;;;;;5148923;27;20062;-50
2024/03/18 02:27:55;;;;;;;11.98;7.90;;;;;;;;;;5151846;27;20023;-53
2024/03/18 02:30:21;;;;;;;8.77;6.65;;;;;;;;;;5153485;27;20026;-51
2024/03/18 02:32:47;;;;;;;10.48;7.57;;;;;;;;;;5143096;27;20019;-53
2024/03/18 02:35:16;;;;;;;8.43;6.93;;;;;;;;;;5132108;27;20046;-50
2024/03/18 02:37:43;;;;;;;9.73;6.80;;;;;;;;;;5144238;27;20020;-54
2024/03/18 02:40:09;;;;;;;8.68;6.93;;;;;;;;;;5148526;27;20035;-53
2024/03/18 02:42:40;;;;;;;7.32;6.63;;;;;;;;;;5154906;27;20091;-49
2024/03/18 02:45:10;;;;;;;9.45;7.40;;;;;;;;;;5145970;27;20030;-50
2024/03/18 02:50:39;;;;;;;9.07;7.07;;;;;;;;;;5152959;27;20026;-55
2024/03/18 02:53:06;;;;;;;7.25;6.60;;;;;;;;;;5139173;27;20031;-50
2024/03/18 02:55:32;;;;;;;9.73;6.80;;;;;;;;;;5129374;27;20041;-54
2024/03/18 02:57:58;;;;;;;8.45;7.00;;;;;;;;;;5149331;27;20031;-52
2024/03/18 03:00:24;;;;;;;8.85;7.57;;;;;;;;;;5148316;27;20428;-54
2024/03/18 03:02:50;;;;;;;8.77;7.30;;;;;;;;;;5151422;27;20025;-55
2024/03/18 03:05:19;;;;;;;11.10;7.88;;;;;;;;;;5151991;27;20022;-53
2024/03/18 03:07:45;;;;;;;12.00;8.63;;;;;;;;;;5151012;27;20103;-53
2024/03/18 03:10:12;;;;;;;10.27;8.05;;;;;;;;;;5131005;27;20070;-52
2024/03/18 03:12:38;;;;;;;10.20;9.15;;;;;;;;;;5133078;27;20023;-55
2024/03/18 03:15:04;;;;;;;11.00;8.38;;;;;;;;;;5129878;27;20027;-54
2024/03/18 03:17:30;;;;;;;8.68;7.70;;;;;;;;;;5118399;27;20071;-48
2024/03/18 03:19:56;;;;;;;13.52;8.95;;;;;;;;;;5133693;27;20031;-53
2024/03/18 03:22:22;;;;;;;8.98;7.80;;;;;;;;;;5125286;27;20488;-51
2024/03/18 03:24:48;;;;;;;10.30;7.50;;;;;;;;;;5132105;27;20102;-52
2024/03/18 03:27:15;;;;;;;8.27;7.15;;;;;;;;;;5120866;27;20106;-50
2024/03/18 03:29:42;;;;;;;9.50;7.05;;;;;;;;;;5126785;27;20378;-51
2024/03/18 03:32:09;;;;;;;10.35;7.13;;;;;;;;;;5128329;27;20015;-51
2024/03/18 03:34:35;;;;;;;8.63;6.90;;;;;;;;;;5132020;27;20054;-50
2024/03/18 03:37:01;;;;;;;8.32;5.97;;;;;;;;;;5133604;27;20469;-49
2024/03/18 03:39:27;;;;;;;8.63;5.57;;;;;;;;;;5118880;27;20024;-52
2024/03/18 03:41:53;;;;;;;5.78;5.18;;;;;;;;;;5131433;27;20015;-53
2024/03/18 03:44:19;;;;;;;6.00;4.85;;;;;;;;;;5132845;27;20050;-52
2024/03/18 03:46:45;;;;;;;9.63;5.63;;;;;;;;;;5120135;27;20015;-53
2024/03/18 03:49:24;;;;;;;8.30;5.43;;;;;;;;;;5133282;28;20030;-50
2024/03/18 03:51:50;;;;;;;10.88;5.20;;;;;;;;;;5132834;27;20019;-55
2024/03/18 03:54:16;;;;;;;7.75;5.57;;;;;;;;;;5133473;28;20480;-53
2024/03/18 03:56:42;;;;;;;7.55;5.70;;;;;;;;;;5118753;27;20019;-54
2024/03/18 03:59:08;;;;;;;9.40;4.90;;;;;;;;;;5132098;28;20029;-55
2024/03/18 04:01:34;;;;;;;8.70;5.43;;;;;;;;;;5122355;28;20106;-55
2024/03/18 04:04:00;;;;;;;10.80;5.88;;;;;;;;;;5133269;28;20384;-55
2024/03/18 04:06:27;;;;;;;7.38;5.00;;;;;;;;;;5132838;27;20532;-51
2024/03/18 04:08:53;;;;;;;7.22;5.15;;;;;;;;;;5131874;28;20015;-53
2024/03/18 04:11:18;;;;;;;9.85;5.00;;;;;;;;;;5148349;27;20384;-52
2024/03/18 04:13:45;;;;;;;9.55;5.43;;;;;;;;;;5153558;27;20023;-50
2024/03/18 04:16:11;;;;;;;7.57;5.65;;;;;;;;;;5153830;27;20376;-52
2024/03/18 04:18:38;;;;;;;7.07;5.50;;;;;;;;;;5145258;27;20039;-50
2024/03/18 04:21:04;;;;;;;8.40;6.15;;;;;;;;;;5151060;27;20027;-54
2024/03/18 04:23:32;;;;;;;10.98;5.30;;;;;;;;;;5129743;27;20023;-49
2024/03/18 04:26:00;;;;;;;9.95;5.65;;;;;;;;;;5135110;27;20380;-53
2024/03/18 04:28:26;;;;;;;7.60;5.63;;;;;;;;;;5154955;27;20039;-50
2024/03/18 04:30:53;;;;;;;12.00;6.57;;;;;;;;;;5156967;27;20027;-53
2024/03/18 04:33:18;;;;;;;9.57;5.68;;;;;;;;;;5138975;27;20418;-52
2024/03/18 04:35:45;;;;;;;9.75;6.10;;;;;;;;;;5152679;27;20020;-54
2024/03/18 04:38:11;;;;;;;7.45;6.28;;;;;;;;;;5157631;27;20352;-48
2024/03/18 04:40:37;;;;;;;9.25;6.07;;;;;;;;;;5156873;27;20095;-50
2024/03/18 04:43:06;;;;;;;7.65;6.07;;;;;;;;;;5157542;27;20353;-54
2024/03/18 04:45:33;;;;;;;8.80;5.88;;;;;;;;;;5131282;27;20472;-54
2024/03/18 04:47:59;;;;;;;9.60;6.18;;;;;;;;;;5156854;27;20475;-53
2024/03/18 04:50:25;;;;;;;7.55;6.35;;;;;;;;;;5138061;27;20023;-53
2024/03/18 04:52:52;;;;;;;8.32;5.80;;;;;;;;;;5157180;27;20071;-53
2024/03/18 04:55:18;;;;;;;10.25;6.32;;;;;;;;;;5152250;27;20456;-50
2024/03/18 04:57:44;;;;;;;6.93;6.07;;;;;;;;;;5152747;27;20035;-51
2024/03/18 05:00:14;;;;;;;10.38;6.20;;;;;;;;;;5156473;27;20110;-50
2024/03/18 05:02:40;;;;;;;9.32;6.60;;;;;;;;;;5157084;27;20023;-50
2024/03/18 05:05:07;;;;;;;11.32;6.70;;;;;;;;;;5143675;27;20026;-51
2024/03/18 05:07:33;;;;;;;10.20;7.18;;;;;;;;;;5157067;27;20030;-49
2024/03/18 05:09:59;;;;;;;8.73;6.70;;;;;;;;;;5155409;27;20503;-53
2024/03/18 05:12:26;;;;;;;10.02;7.75;;;;;;;;;;5147132;27;20023;-50
2024/03/18 05:14:52;;;;;;;12.27;7.07;;;;;;;;;;5156133;27;20121;-52
2024/03/18 05:17:18;;;;;;;11.10;8.63;;;;;;;;;;5156800;27;20058;-51
2024/03/18 05:19:44;;;;;;;14.38;8.20;;;;;;;;;;5156631;27;20453;-50
2024/03/18 05:22:11;;;;;;;13.27;8.68;;;;;;;;;;5156458;27;20044;-52
2024/03/18 05:24:38;;;;;;;15.10;8.98;;;;;;;;;;5156545;27;20110;-52
2024/03/18 05:27:04;;;;;;;12.15;8.45;;;;;;;;;;5155773;27;20018;-53
2024/03/18 05:29:30;;;;;;;12.73;8.65;;;;;;;;;;5156355;27;20027;-51
2024/03/18 05:31:56;;;;;;;13.02;8.15;;;;;;;;;;5152178;27;20033;-54
2024/03/18 05:34:22;;;;;;;13.73;8.45;;;;;;;;;;5156286;27;20038;-55
2024/03/18 05:36:48;;;;;;;14.77;7.95;;;;;;;;;;5156255;27;20027;-53
2024/03/18 05:39:14;;;;;;;17.80;7.63;;;;;;;;;;5156174;27;20421;-56
2024/03/18 05:41:40;;;;;;;10.68;6.80;;;;;;;;;;5150007;27;20022;-55
2024/03/18 05:44:06;;;;;;;12.45;7.32;;;;;;;;;;5137586;27;20035;-54
2024/03/18 05:46:32;;;;;;;7.85;7.03;;;;;;;;;;5151417;27;20183;-53
2024/03/18 05:48:58;;;;;;;11.25;7.18;;;;;;;;;;5137515;27;20023;-51
2024/03/18 05:51:24;;;;;;;11.38;7.47;;;;;;;;;;5147431;27;20048;-54
2024/03/18 05:53:50;;;;;;;11.63;6.68;;;;;;;;;;5155996;27;20034;-53
2024/03/18 05:56:17;;;;;;;9.57;6.22;;;;;;;;;;5149025;27;20026;-49
2024/03/18 05:58:43;;;;;;;9.45;6.43;;;;;;;;;;5156031;27;20027;-53
2024/03/18 06:01:12;;;;;;;14.18;6.40;;;;;;;;;;5155480;27;20055;-54
2024/03/18 06:03:39;;;;;;;7.93;6.38;;;;;;;;;;5156046;27;20062;-49
2024/03/18 06:06:06;;;;;;;9.57;5.70;;;;;;;;;;5151241;27;20018;-51
2024/03/18 06:08:32;;;;;;;9.90;6.22;;;;;;;;;;5132390;27;20015;-51
2024/03/18 06:10:58;;;;;;;12.00;6.35;;;;;;;;;;5149479;27;20126;-53
2024/03/18 06:13:25;;;;;;;10.70;6.93;;;;;;;;;;5153423;27;20050;-51
2024/03/18 06:15:51;;;;;;;8.98;6.28;;;;;;;;;;5155170;27;20075;-49
2024/03/18 06:18:17;;;;;;;8.98;6.72;;;;;;;;;;5133153;27;20038;-52
2024/03/18 06:20:44;;;;;;;9.27;6.00;;;;;;;;;;5148592;27;20368;-50
2024/03/18 06:23:16;;;;;;;9.93;7.20;;;;;;;;;;5151847;27;20022;-52
2024/03/18 06:25:58;;;;;;;9.57;6.65;;;;;;;;;;5144038;27;20105;-52
2024/03/18 06:28:31;;;;;;;8.57;6.55;;;;;;;;;;5145004;27;20117;-55
2024/03/18 06:31:01;;;;;;;9.32;6.40;;;;;;;;;;5143581;27;20042;-52
2024/03/18 06:33:28;;;;;;;9.23;6.47;;;;;;;;;;5151744;27;20080;-52
2024/03/18 06:35:54;;;;;;;10.90;6.80;;;;;;;;;;5152565;27;20022;-50
2024/03/18 06:38:24;;;;;;;9.30;5.88;;;;;;;;;;5154788;27;20109;-51
2024/03/18 06:40:50;;;;;;;11.20;6.60;;;;;;;;;;5153344;27;20031;-52
2024/03/18 06:43:16;;;;;;;10.55;7.07;;;;;;;;;;5150283;27;20041;-51
2024/03/18 06:45:42;;;;;;;10.30;8.10;;;;;;;;;;5148373;27;20030;-52
2024/03/18 06:48:08;;;;;;;13.85;8.65;;;;;;;;;;5155048;27;20398;-52
2024/03/18 06:50:38;;;;;;;12.23;8.60;;;;;;;;;;5153934;27;20034;-51
2024/03/18 06:53:04;;;;;;;10.50;7.75;;;;;;;;;;5142417;27;20045;-52
2024/03/18 06:55:30;;;;;;;9.60;7.45;;;;;;;;;;5155311;27;20078;-52
2024/03/18 06:57:57;;;;;;;11.57;8.38;;;;;;;;;;5152375;27;20026;-53
2024/03/18 07:00:23;;;;;;;14.55;8.43;;;;;;;;;;5154871;27;20164;-52
2024/03/18 07:02:50;;;;;;;10.50;7.32;;;;;;;;;;5152446;27;20367;-50
2024/03/18 07:05:20;;;;;;;12.35;8.23;;;;;;;;;;5154517;27;20169;-54
2024/03/18 07:07:46;;;;;;;12.63;7.95;;;;;;;;;;5154685;27;20492;-54
2024/03/18 07:10:12;;;;;;;10.32;7.85;;;;;;;;;;5154389;27;20121;-54
2024/03/18 07:12:38;;;;;;;10.90;8.48;;;;;;;;;;5154605;27;20140;-53
2024/03/18 07:15:06;;;;;;;13.30;7.88;;;;;;;;;;5154276;27;20034;-53
2024/03/18 07:17:32;;;;;;;9.63;8.63;;;;;;;;;;5135904;27;20547;-55
2024/03/18 07:19:58;;;;;;;15.10;9.57;;;;;;;;;;5153173;27;20030;-55
2024/03/18 07:22:25;;;;;;;13.45;9.52;;;;;;;;;;5133278;27;20045;-55
2024/03/18 07:24:51;;;;;;;15.07;9.88;;;;;;;;;;5144619;27;20019;-55
2024/03/18 07:27:17;;;;;;;14.50;9.27;;;;;;;;;;5154556;27;20124;-54
2024/03/18 07:29:43;;;;;;;10.52;8.63;;;;;;;;;;5146983;27;20102;-55
2024/03/18 07:32:10;;;;;;;9.38;7.32;;;;;;;;;;5150681;27;20070;-52
2024/03/18 07:34:37;;;;;;;9.57;7.57;;;;;;;;;;5132761;27;20034;-53
2024/03/18 07:37:03;;;;;;;10.05;6.95;;;;;;;;;;5154195;27;20022;-55
2024/03/18 07:39:29;;;;;;;12.10;6.68;;;;;;;;;;5139663;27;20527;-51
2024/03/18 07:41:58;;;;;;;12.98;7.57;;;;;;;;;;5133145;27;20023;-51
2024/03/18 07:44:24;;;;;;;7.63;6.15;;;;;;;;;;5142248;27;20573;-50
2024/03/18 07:46:50;;;;;;;9.00;6.22;;;;;;;;;;5153949;27;20018;-51
2024/03/18 07:49:16;;;;;;;10.07;5.45;;;;;;;;;;5154163;27;20110;-51
2024/03/18 07:51:42;;;;;;;10.52;5.45;;;;;;;;;;5154101;27;20513;-53
2024/03/18 07:54:08;;;;;;;8.73;5.20;;;;;;;;;;5153688;27;20492;-53
2024/03/18 07:56:35;;;;;;;8.38;5.05;;;;;;;;;;5153877;27;20536;-51
2024/03/18 07:59:01;;;;;;;8.27;5.15;;;;;;;;;;5153993;27;20068;-49
2024/03/18 08:01:27;;;;;;;6.70;5.45;;;;;;;;;;5154131;27;20050;-49
2024/03/18 08:03:53;;;;;;;8.75;5.20;;;;;;;;;;5157981;27;20018;-51
2024/03/18 08:06:19;;;;;;;6.80;4.65;;;;;;;;;;5158082;27;20031;-52
2024/03/18 08:08:45;;;;;;;11.85;5.75;;;;;;;;;;5158000;27;20027;-53
2024/03/18 08:11:12;;;;;;;10.60;6.07;;;;;;;;;;5157846;27;20074;-53
2024/03/18 08:13:41;;;;;;;10.15;6.35;;;;;;;;;;5157797;27;20468;-51
2024/03/18 08:16:07;;;;;;;9.70;6.18;;;;;;;;;;5157565;27;20034;-51
2024/03/18 08:18:33;;;;;;;8.25;5.57;;;;;;;;;;5157545;27;20053;-49
2024/03/18 08:20:59;;;;;;;8.75;5.43;;;;;;;;;;5157866;27;20106;-52
2024/03/18 08:23:25;;;;;;;8.00;5.72;;;;;;;;;;5157963;27;20037;-52
2024/03/18 08:25:52;;;;;;;10.85;5.90;;;;;;;;;;5157981;27;20026;-52
2024/03/18 08:28:18;;;;;;;7.13;5.47;;;;;;;;;;5139493;27;20083;-51
2024/03/18 08:30:43;;;;;;;11.38;6.60;;;;;;;;;;5158033;27;20035;-50
2024/03/18 08:33:10;;;;;;;6.63;5.05;;;;;;;;;;5157774;27;20022;-51
2024/03/18 08:35:39;;;;;;;10.45;5.63;;;;;;;;;;5157926;27;20026;-53
2024/03/18 08:38:05;;;;;;;6.82;4.90;;;;;;;;;;5157540;27;20097;-50
2024/03/18 08:40:31;;;;;;;16.10;5.10;;;;;;;;;;5157439;27;20025;-56
2024/03/18 08:43:00;;;;;;;12.35;5.32;;;;;;;;;;5157482;27;20122;-50
2024/03/18 08:45:26;;;;;;;5.85;4.75;;;;;;;;;;5138796;27;20078;-55
2024/03/18 08:47:52;;;;;;;9.88;5.45;;;;;;;;;;5157633;27;20027;-55
2024/03/18 08:50:18;;;;;;;9.95;5.95;;;;;;;;;;5138533;27;20098;-52
2024/03/18 08:52:45;;;;;;;8.90;5.63;;;;;;;;;;5157457;27;20103;-53
2024/03/18 08:55:11;;;;;;;8.75;5.78;;;;;;;;;;5156862;27;20031;-54
2024/03/18 08:57:37;;;;;;;11.30;6.63;;;;;;;;;;5157172;27;20023;-54
2024/03/18 09:00:04;;;;;;;13.48;6.90;;;;;;;;;;5130275;27;20077;-52
2024/03/18 09:02:30;;;;;;;7.45;6.53;;;;;;;;;;5138683;27;20018;-53
2024/03/18 09:04:56;;;;;;;16.35;6.45;;;;;;;;;;5138435;27;20499;-49
2024/03/18 09:07:22;;;;;;;7.95;5.97;;;;;;;;;;5157238;27;20026;-50
2024/03/18 09:09:48;;;;;;;9.93;6.05;;;;;;;;;;5155975;27;20096;-50
2024/03/18 09:12:14;;;;;;;10.18;6.95;;;;;;;;;;5138387;27;20023;-51
2024/03/18 09:14:40;;;;;;;12.15;6.05;;;;;;;;;;5155988;27;20472;-50
2024/03/18 09:17:06;;;;;;;12.07;5.95;;;;;;;;;;5156729;27;20080;-51
2024/03/18 09:19:40;;;;;;;6.78;5.75;;;;;;;;;;5144954;27;20026;-51
2024/03/18 09:22:09;;;;;;;8.52;4.80;;;;;;;;;;5156616;27;20026;-49
2024/03/18 09:24:35;;;;;;;8.35;5.30;;;;;;;;;;5138061;27;20023;-49
2024/03/18 09:27:04;;;;;;;10.05;6.10;;;;;;;;;;5156807;27;20019;-48
2024/03/18 09:29:30;;;;;;;10.55;6.32;;;;;;;;;;5155374;27;20083;-50
2024/03/18 09:31:56;;;;;;;7.45;5.97;;;;;;;;;;5156438;27;20062;-50
2024/03/18 09:34:22;;;;;;;9.15;6.28;;;;;;;;;;5153271;27;20054;-51
2024/03/18 09:36:51;;;;;;;10.63;6.50;;;;;;;;;;5129516;27;20091;-52
2024/03/18 09:39:17;;;;;;;11.75;6.88;;;;;;;;;;5156183;27;20372;-50
2024/03/18 09:41:49;;;;;;;12.38;8.18;;;;;;;;;;5156339;27;20015;-55
2024/03/18 09:44:15;;;;;;;8.45;6.78;;;;;;;;;;5156077;27;20035;-51
2024/03/18 09:46:41;;;;;;;9.70;7.93;;;;;;;;;;5137620;27;20030;-51
2024/03/18 09:49:20;;;;;;;10.32;7.75;;;;;;;;;;5137306;27;20057;-50
2024/03/18 09:54:50;;;;;;;9.93;7.30;;;;;;;;;;5154684;27;20482;-52
2024/03/18 09:57:18;;;;;;;8.57;7.20;;;;;;;;;;5156006;27;20102;-52
2024/03/18 09:59:44;;;;;;;9.77;6.50;;;;;;;;;;5154323;27;20034;-52
2024/03/18 10:02:16;;;;;;;7.72;6.60;;;;;;;;;;5156036;27;20030;-51
2024/03/18 10:04:42;;;;;;;9.23;6.20;;;;;;;;;;5155839;27;20464;-51
2024/03/18 10:07:11;;;;;;;7.38;5.72;;;;;;;;;;5155403;27;20071;-54
2024/03/18 10:09:37;;;;;;;7.45;5.07;;;;;;;;;;5154890;27;20107;-54
2024/03/18 10:12:04;;;;;;;10.23;5.40;;;;;;;;;;5142047;27;20038;-50
2024/03/18 10:14:30;;;;;;;9.98;6.53;;;;;;;;;;5137240;27;20039;-53
2024/03/18 10:16:59;;;;;;;8.57;6.25;;;;;;;;;;5137105;27;20041;-53
2024/03/18 10:19:25;;;;;;;10.93;6.13;;;;;;;;;;5137411;27;20030;-54
2024/03/18 10:21:51;;;;;;;10.65;6.13;;;;;;;;;;5136856;27;20014;-51
2024/03/18 10:24:17;;;;;;;10.93;5.78;;;;;;;;;;5155741;27;20019;-52
2024/03/18 10:26:47;;;;;;;10.35;5.38;;;;;;;;;;5154236;27;20025;-53
2024/03/18 10:29:13;;;;;;;7.57;5.68;;;;;;;;;;5155335;27;20495;-54
2024/03/18 10:31:39;;;;;;;8.73;5.70;;;;;;;;;;5155245;27;20019;-53
2024/03/18 10:34:08;;;;;;;5.75;4.82;;;;;;;;;;5155422;27;20030;-55
2024/03/18 10:36:37;;;;;;;7.28;5.25;;;;;;;;;;5136589;27;20046;-51
2024/03/18 10:39:07;;;;;;;7.50;5.50;;;;;;;;;;5155482;27;20023;-51
2024/03/18 10:44:38;;;;;;;8.75;5.47;;;;;;;;;;5152879;27;20735;-55
2024/03/18 10:47:04;;;;;;;9.48;5.82;;;;;;;;;;5155305;27;20031;-52
2024/03/18 10:49:30;;;;;;;8.18;5.32;;;;;;;;;;5154670;27;20026;-50
2024/03/18 10:52:15;;;;;;;9.15;5.45;;;;;;;;;;5135915;27;20399;-54
2024/03/18 10:54:41;;;;;;;7.78;5.07;;;;;;;;;;5135278;27;20065;-54
2024/03/18 10:57:09;;;;;;;5.93;4.53;;;;;;;;;;5154327;27;20440;-52
2024/03/18 10:59:36;;;;;;;8.40;4.80;;;;;;;;;;5140459;27;20054;-52
2024/03/18 11:02:02;;;;;;;8.15;5.53;;;;;;;;;;5154611;27;20030;-53
2024/03/18 11:04:29;;;;;;;10.30;5.55;;;;;;;;;;5136020;27;20298;-55
2024/03/18 11:06:56;;;;;;;10.60;5.93;;;;;;;;;;5154922;27;20428;-51
2024/03/18 11:09:23;;;;;;;12.40;6.95;;;;;;;;;;5154842;27;20037;-52
2024/03/18 11:11:50;;;;;;;10.05;5.45;;;;;;;;;;5154340;27;20046;-53
2024/03/18 11:14:29;;;;;;;10.10;5.60;;;;;;;;;;5154599;27;20039;-55
2024/03/18 11:16:55;;;;;;;8.15;5.82;;;;;;;;;;5154279;27;20499;-52
2024/03/18 11:19:26;;;;;;;7.35;5.32;;;;;;;;;;5154617;27;20026;-55
2024/03/18 11:21:59;;;;;;;10.30;5.85;;;;;;;;;;5135607;27;20375;-55
2024/03/18 11:24:25;;;;;;;5.90;4.82;;;;;;;;;;5154207;27;20018;-54
2024/03/18 11:26:56;;;;;;;5.97;3.72;;;;;;;;;;5154183;27;20102;-55
2024/03/18 11:29:22;;;;;;;5.97;3.20;;;;;;;;;;5154223;27;20030;-54
2024/03/18 11:31:52;;;;;;;5.75;3.72;;;;;;;;;;5154100;27;20159;-53
2024/03/18 11:34:24;;;;;;;4.75;3.10;;;;;;;;;;5154514;27;20038;-55
2024/03/18 11:36:54;;;;;;;5.22;3.42;;;;;;;;;;5153711;27;20411;-54
2024/03/18 11:39:20;;;;;;;6.20;3.47;;;;;;;;;;5132743;27;20042;-53
2024/03/18 11:41:46;;;;;;;6.70;3.58;;;;;;;;;;5152467;27;20026;-54
2024/03/18 11:44:13;;;;;;;7.50;4.00;;;;;;;;;;5149744;27;20150;-55
2024/03/18 11:46:41;;;;;;;5.43;3.67;;;;;;;;;;5147397;27;20022;-55
2024/03/18 11:49:10;;;;;;;5.68;3.75;;;;;;;;;;5132932;27;20022;-54
2024/03/18 11:51:49;;;;;;;5.18;3.10;;;;;;;;;;5153122;27;20041;-55
2024/03/18 11:54:16;;;;;;;7.07;3.63;;;;;;;;;;5151598;27;20030;-55
2024/03/18 11:56:42;;;;;;;9.57;3.53;;;;;;;;;;5153287;27;20027;-55
2024/03/18 11:59:18;;;;;;;6.07;4.25;;;;;;;;;;5153507;27;20088;-53
2024/03/18 12:01:45;;;;;;;6.70;3.95;;;;;;;;;;5140103;27;20049;-54
2024/03/18 12:04:17;;;;;;;7.63;4.90;;;;;;;;;;5153671;27;20078;-54
2024/03/18 12:07:05;;;;;;;7.22;5.07;;;;;;;;;;5135453;27;20082;-54
2024/03/18 12:09:33;;;;;;;10.13;5.93;;;;;;;;;;5141166;27;20026;-54
2024/03/18 12:12:00;;;;;;;7.10;4.55;;;;;;;;;;5153675;27;20058;-56
2024/03/18 12:14:26;;;;;;;6.38;4.43;;;;;;;;;;5153591;27;20022;-55
2024/03/18 12:16:56;;;;;;;7.00;4.50;;;;;;;;;;5135180;27;20019;-52
2024/03/18 12:19:22;;;;;;;5.78;3.65;;;;;;;;;;5153855;27;20422;-54
2024/03/18 12:21:48;;;;;;;8.88;4.00;;;;;;;;;;5153651;27;20015;-55
2024/03/18 12:29:44;;;;;;;7.82;5.28;;;;;;;;;;5139933;27;20054;-54
2024/03/18 12:32:12;;;;;;;8.90;5.15;;;;;;;;;;5132850;27;20164;-55
2024/03/18 12:34:38;;;;;;;9.90;5.97;;;;;;;;;;5136067;27;20037;-55
2024/03/18 12:37:04;;;;;;;8.68;5.53;;;;;;;;;;5153464;27;20079;-54
2024/03/18 12:39:30;;;;;;;10.52;6.13;;;;;;;;;;5153376;27;20023;-52
2024/03/18 12:48:04;;;;;;;12.05;5.90;;;;;;;;;;5149255;27;20030;-54
2024/03/18 12:50:30;;;;;;;5.90;4.63;;;;;;;;;;5137599;27;20396;-52
2024/03/18 12:52:56;;;;;;;6.15;4.63;;;;;;;;;;5157046;27;20053;-53
2024/03/18 12:55:22;;;;;;;7.85;4.13;;;;;;;;;;5157269;27;20441;-55
2024/03/18 12:57:48;;;;;;;6.30;3.75;;;;;;;;;;5138444;27;20106;-49
2024/03/18 13:00:18;;;;;;;8.73;4.00;;;;;;;;;;5157263;27;20098;-50
2024/03/18 13:02:44;;;;;;;6.50;3.58;;;;;;;;;;5156868;27;20026;-52
2024/03/18 13:05:10;;;;;;;5.53;3.78;;;;;;;;;;5140203;27;20023;-51
2024/03/18 13:07:41;;;;;;;5.70;3.75;;;;;;;;;;5144930;27;20031;-52
2024/03/18 13:10:08;;;;;;;4.78;3.70;;;;;;;;;;5138118;27;20065;-53
2024/03/18 13:12:40;;;;;;;4.85;4.25;;;;;;;;;;5156797;27;20102;-51
2024/03/18 13:15:07;;;;;;;6.82;4.93;;;;;;;;;;5156935;27;20066;-54
2024/03/18 13:17:33;;;;;;;4.28;3.88;;;;;;;;;;5156884;27;20019;-53
2024/03/18 13:20:03;;;;;;;5.20;3.55;;;;;;;;;;5137918;27;20027;-52
2024/03/18 13:22:29;;;;;;;4.78;3.22;;;;;;;;;;5156864;27;20094;-52
2024/03/18 13:24:55;;;;;;;6.28;3.83;;;;;;;;;;5138063;27;20501;-56
2024/03/18 13:27:21;;;;;;;5.32;3.88;;;;;;;;;;5137962;27;20033;-53
2024/03/18 13:29:47;;;;;;;5.07;3.55;;;;;;;;;;5156575;27;20034;-51
2024/03/18 13:32:14;;;;;;;7.60;3.78;;;;;;;;;;5156639;27;20414;-54
2024/03/18 13:34:40;;;;;;;5.22;3.42;;;;;;;;;;5156167;27;20062;-52
2024/03/18 13:37:06;;;;;;;5.85;3.40;;;;;;;;;;5137746;27;20488;-53
2024/03/18 13:39:43;;;;;;;4.28;3.53;;;;;;;;;;5156306;27;20023;-55
2024/03/18 13:42:15;;;;;;;5.18;3.47;;;;;;;;;;5154548;27;20490;-52
2024/03/18 13:44:45;;;;;;;6.95;3.40;;;;;;;;;;5134345;27;20031;-49
2024/03/18 13:47:12;;;;;;;4.88;3.35;;;;;;;;;;5136690;27;20475;-50
2024/03/18 13:49:38;;;;;;;3.85;3.45;;;;;;;;;;5155485;27;20026;-50
2024/03/18 13:52:05;;;;;;;3.60;3.15;;;;;;;;;;5137584;27;20015;-48
2024/03/18 13:54:31;;;;;;;4.57;3.75;;;;;;;;;;5155332;27;20041;-50
2024/03/18 13:57:03;;;;;;;4.15;2.58;;;;;;;;;;5155569;27;20038;-48
2024/03/18 13:59:43;;;;;;;6.10;2.90;;;;;;;;;;5155321;27;20070;-49
2024/03/18 14:02:14;;;;;;;6.43;3.03;;;;;;;;;;5136911;27;20122;-47
2024/03/18 14:04:41;;;;;;;5.22;2.80;;;;;;;;;;5155350;27;20103;-53
2024/03/18 14:07:07;;;;;;;5.70;3.35;;;;;;;;;;5155099;27;20031;-53
2024/03/18 14:09:34;;;;;;;6.30;3.90;;;;;;;;;;5155027;27;20377;-47
2024/03/18 14:12:01;;;;;;;5.47;4.13;;;;;;;;;;5154787;27;20493;-51
2024/03/18 14:14:27;;;;;;;5.43;3.83;;;;;;;;;;5136293;27;20130;-49
2024/03/18 14:16:54;;;;;;;4.93;4.10;;;;;;;;;;5154994;27;20023;-49
2024/03/18 14:19:21;;;;;;;6.07;3.50;;;;;;;;;;5154525;27;20031;-53
2024/03/18 14:21:47;;;;;;;4.05;2.55;;;;;;;;;;5153123;27;20042;-51
2024/03/18 14:24:13;;;;;;;4.47;3.55;;;;;;;;;;5154460;27;20027;-48
2024/03/18 14:26:39;;;;;;;3.92;3.60;;;;;;;;;;5154341;27;20055;-52
2024/03/18 14:29:05;;;;;;;5.00;4.22;;;;;;;;;;5146182;27;20528;-53
2024/03/18 14:31:31;;;;;;;5.85;2.90;;;;;;;;;;5152749;27;20049;-52
2024/03/18 14:33:58;;;;;;;3.95;2.78;;;;;;;;;;5153985;27;20122;-48
2024/03/18 14:42:32;;;;;;;3.95;2.45;;;;;;;;;;5150193;27;20074;-49
2024/03/18 14:44:58;;;;;;;3.92;3.38;;;;;;;;;;5153759;27;20564;-53
2024/03/18 14:47:24;;;;;;;4.82;3.45;;;;;;;;;;5136080;27;20086;-58
2024/03/18 14:49:50;;;;;;;5.10;3.80;;;;;;;;;;5154134;27;20031;-56
2024/03/18 14:52:16;;;;;;;5.18;4.05;;;;;;;;;;5135953;27;20067;-56
2024/03/18 14:54:42;;;;;;;5.03;3.88;;;;;;;;;;5154242;27;20448;-57
2024/03/18 14:57:09;;;;;;;5.93;4.57;;;;;;;;;;5148710;27;20212;-51
2024/03/18 14:59:35;;;;;;;4.78;4.38;;;;;;;;;;5145957;27;20023;-55
2024/03/18 15:02:01;;;;;;;5.40;4.30;;;;;;;;;;5154315;27;20031;-55
2024/03/18 15:04:33;;;;;;;6.93;4.60;;;;;;;;;;5142853;27;20405;-54